Hersey, Michigan
Current Conditions -  °F | °C
As of 5:14 AM on Thursday 29 Jan 2015 (Local Time) from KRQB Reporting Station
Overcast Overcast  
Wind Chill: 20°   Ceiling: 3600
Heat Index: 26°   Visibility: 10mi
Dew Point: 23°   Wind: 6mph
Humidity: 87%   Direction: 150°SSE
Pressure: 29.78"   Gusts: NA
Location:  43.85°N, 85.44°W
Report Text: KRQB 291014Z AUTO 15005KT 10SM OVC036 M03/M05 A2978 RMK AO2 T10311050
Loading
Personal Weather Stations






























Interactive Weather Map New forecast layout! Learn more

10-Day Weather Forecast

Advertisements
Track Severe Weather on mobile